Latest Coastal Weather Observations for Hobart Airport

IDT60701

Issued at 8:21 am EST Sunday 2 August 2015 (issued every 10 minutes, with the page automatically refreshed every 10 minutes)

About coastal observations | Map of coastal stations | Coastal observations for TAS | Marine services | Other Formats
Station Details ID: 094008 Name: HOBART AIRPORT Lat: -42.83 Lon: 147.50 Height: 4.0 m
Data from the previous 72 hours. | See also: Recent months at Hobart Airport
Date/Time
EST
Temp

°C
Wind Pressure Rain
since 9am
mm
Weather Cloud Vis
km
Sea
Height
m
Swell
Dir
 
Speed
knots
Gust
knots
hPa Trend Height
m
Period
s
Dir
02/08:00am 6.9 NNW 17 27 998.2 - 0.0 - Mostly clear 10 - - - -
02/07:53am 6.9 NNW 16 26 998.3 - 0.0 - Mostly clear 10 - - - -
02/07:30am 6.4 NNW 14 21 998.7 - 0.0 - Mostly clear 10 - - - -
02/07:00am 6.5 NNW 15 27 999.1 - 0.0 - Mostly clear 10 - - - -
02/06:56am 6.4 NNW 15 27 999.1 - 0.0 - Mostly clear 10 - - - -
02/06:30am 6.4 NNW 15 20 999.3 - 0.0 - Mostly clear 10 - - - -
02/06:16am 6.5 N 15 25 999.4 - 0.0 - Mostly clear 10 - - - -
02/06:00am 6.3 N 13 20 999.7 F 0.0 Fine Mostly clear 40 - - - -
02/05:30am 7.4 N 14 28 1000.4 - 0.0 - Mostly clear 10 - - - -
02/05:00am 7.2 N 11 18 1000.8 - 0.0 - Mostly clear 10 - - - -
02/04:30am 8.3 NNW 16 23 1001.2 - 0.0 - Mostly clear 10 - - - -
02/04:02am 8.3 NNW 15 26 1001.9 - 0.0 - Mostly clear 10 - - - -
02/04:00am 8.4 NNW 15 24 1001.9 - 0.0 - Mostly clear 10 - - - -
02/03:41am 8.2 NNW 15 25 1002.0 - 0.0 - Mostly clear 10 - - - -
02/03:30am 7.8 NNW 14 24 1002.2 - 0.0 - Mostly clear 10 - - - -
02/03:19am 8.0 NNW 16 26 1002.3 - 0.0 - Mostly clear 10 - - - -
02/03:00am 8.1 NNW 14 21 1002.5 F 0.0 Fine Mostly clear 40 - - - -
02/02:53am 8.0 NNW 15 25 1002.7 - 0.0 - Mostly clear 10 - - - -
02/02:30am 7.5 NNW 13 19 1003.3 - 0.0 - Mostly clear 10 - - - -
02/02:00am 7.9 NNW 15 21 1003.4 - 0.0 - Mostly clear 10 - - - -
02/01:30am 8.0 NNW 17 25 1003.5 - 0.0 - Mostly clear 10 - - - -
02/01:00am 7.8 NNW 15 23 1003.9 - 0.0 - Mostly clear 10 - - - -
02/12:30am 7.5 NNW 14 20 1004.4 - 0.0 - Mostly clear 10 - - - -
02/12:00am 7.4 NNW 12 21 1004.7 F 0.0 Fine Mostly clear 40 - - - -
 
Date/Time
EST
Temp

°C
Wind Pressure Rain
since 9am
mm
Weather Cloud Vis
km
Sea
Height
m
Swell
Dir
 
Speed
knots
Gust
knots
hPa Trend Height
m
Period
s
Dir
01/11:30pm 7.0 NNW 11 20 1005.1 - 0.0 - Mostly clear 10 - - - -
01/11:00pm 7.0 NNW 12 18 1005.5 - 0.0 - Mostly clear 10 - - - -
01/10:30pm 6.8 NNW 12 17 1005.8 - 0.0 - Mostly clear 10 - - - -
01/10:00pm 7.3 NW 14 19 1006.1 - 0.0 - Mostly clear 10 - - - -
01/09:30pm 6.6 NNW 11 19 1006.3 - 0.0 - Mostly clear 10 - - - -
01/09:00pm 7.2 NNW 14 20 1006.4 F 0.0 Fine Mostly clear 40 - - - -
01/08:30pm 6.4 NNW 11 17 1006.7 - 0.0 - Mostly clear 10 - - - -
01/08:00pm 6.6 NNW 11 17 1006.8 - 0.0 - Mostly clear 10 - - - -
01/07:30pm 6.6 N 11 16 1006.8 - 0.0 - Mostly clear 10 - - - -
01/07:00pm 7.4 N 11 16 1006.7 - 0.0 - Mostly clear 10 - - - -
01/06:30pm 7.0 N 11 16 1006.3 - 0.0 - Mostly clear 10 - - - -
01/06:00pm 7.3 N 11 15 1005.9 R 0.0 Fine Mostly clear 35 - - - -
01/05:30pm 7.0 NNW 8 14 1005.6 - 0.0 - Mostly clear 10 - - - -
01/05:00pm 8.0 WNW 16 21 1004.8 - 0.0 - Mostly clear 10 - - - -
01/04:30pm 8.3 WNW 19 25 1004.6 - 0.0 - Mostly clear 10 - - - -
01/04:04pm 8.7 WNW 20 30 1004.8 - 0.0 - Mostly clear 10 - - - -
01/04:00pm 8.8 WNW 20 28 1004.8 - 0.0 - Mostly clear 10 - - - -
01/03:30pm 9.4 WNW 20 26 1004.4 - 0.0 - Mostly clear 10 - - - -
01/03:03pm 9.5 WNW 18 28 1004.1 - 0.0 - Mostly clear 10 - - - -
01/03:00pm 9.6 WNW 17 23 1004.1 R 0.0 Distant precip. Mostly clear 35 - - - -
01/02:30pm 9.1 WNW 19 24 1003.8 - 0.0 - Mostly clear 10 - - - -
01/02:07pm 8.7 WNW 20 30 1003.9 - 0.0 - Mostly clear 10 - - - -
01/02:00pm 8.5 WNW 20 26 1003.9 - 0.0 - Mostly clear 10 - - - -
01/01:30pm 7.0 W 22 28 1004.3 - 0.0 Showers Partly cloudy 10 - - - -
01/01:02pm 10.4 WNW 19 29 1003.7 - 0.0 - Partly cloudy 10 - - - -
01/01:00pm 10.4 WNW 18 25 1003.7 - 0.0 - Partly cloudy 10 - - - -
01/12:39pm 9.7 WNW 18 28 1003.1 - 0.0 - Mostly clear 10 - - - -
01/12:30pm 10.0 W 18 26 1003.1 - 0.0 - Mostly clear 10 - - - -
01/12:03pm 9.9 W 17 29 1002.9 - 0.0 - Mostly clear 10 - - - -
01/12:00pm 10.1 W 17 22 1003.0 R 0.0 Fine Mostly clear 35 - - - -
01/11:30am 9.3 WNW 17 24 1002.8 - 0.0 - Mostly clear 10 - - - -
01/11:10am 9.1 W 18 31 1002.9 - 0.0 - Mostly clear 10 - - - -
01/11:00am 8.5 WNW 17 24 1003.0 - 0.0 - Mostly clear 10 - - - -
01/10:30am 7.7 WNW 19 26 1002.9 - 0.0 - Mostly clear 10 - - - -
01/10:06am 7.6 W 21 31 1002.5 - 0.0 - Mostly clear 10 - - - -
01/10:00am 7.6 W 22 31 1002.2 - 0.0 - Partly cloudy 10 - - - -
01/09:44am 7.8 W 18 30 1001.9 - 0.0 - Partly cloudy 10 - - - -
01/09:30am 7.9 WNW 15 21 1001.6 - 0.0 - Mostly clear 10 - - - -
01/09:00am 7.8 NW 19 25 1001.0 R 0.6 Distant precip. Partly cloudy 35 - - - -
01/08:49am 7.1 NW 16 26 1000.7 - 0.6 - Mostly clear 10 - - - -
01/08:30am 7.5 WNW 15 21 1000.3 - 0.6 - Mostly clear 10 - - - -
01/08:19am 7.4 WNW 15 25 1000.5 - 0.6 Showers Mostly clear 5 - - - -
01/08:00am 7.9 WNW 13 18 999.8 - 0.6 - Mostly clear 10 - - - -
01/07:30am 7.5 NW 11 15 998.9 - 0.6 - Mostly clear 10 - - - -
01/07:00am 7.4 NW 13 17 997.8 - 0.6 - Mostly clear 10 - - - -
01/06:30am 8.1 NW 19 24 997.9 - 0.6 - Mostly clear 10 - - - -
01/06:00am 8.5 NW 15 20 997.4 R 0.4 Rain Mostly cloudy 20 - - - -
01/05:30am 9.0 NNW 11 15 997.2 - 0.4 - Mostly clear 10 - - - -
01/05:00am 8.9 NNW 13 18 996.6 - 0.2 - Partly cloudy 10 - - - -
01/04:30am 9.6 NNW 17 26 996.1 - 0.2 Rain Partly cloudy 10 - - - -
01/04:05am 9.6 NNW 18 28 996.1 - 0.2 - Partly cloudy 10 - - - -
01/04:00am 9.4 NNW 18 26 996.3 - 0.2 - Partly cloudy 10 - - - -
01/03:30am 9.4 N 17 27 996.3 - 0.2 - Mostly clear 10 - - - -
01/03:00am 9.6 N 16 23 997.1 F 0.2 Fine Mostly cloudy 40 - - - -
01/02:30am 10.3 NNW 16 26 998.1 - 0.2 - Mostly clear 10 - - - -
01/02:09am 10.2 NNW 15 26 998.6 - 0.2 - Mostly clear 10 - - - -
01/02:00am 10.1 N 14 22 998.7 - 0.2 - Mostly clear 10 - - - -
01/01:30am 9.4 N 19 28 999.8 - 0.2 - Mostly clear 10 - - - -
01/01:23am 9.3 N 17 27 999.7 - 0.2 - Mostly clear 10 - - - -
01/01:00am 9.1 N 13 18 999.4 - 0.2 - Mostly clear 10 - - - -
01/12:30am 9.2 NNE 13 18 1000.6 - 0.2 - Mostly clear 10 - - - -
01/12:00am 9.2 N 11 16 1002.5 F 0.2 Fine Cloudy 40 - - - -
 
Date/Time
EST
Temp

°C
Wind Pressure Rain
since 9am
mm
Weather Cloud Vis
km
Sea
Height
m
Swell
Dir
 
Speed
knots
Gust
knots
hPa Trend Height
m
Period
s
Dir
31/11:30pm 9.3 N 11 17 1003.4 - 0.2 - Partly cloudy 10 - - - -
31/11:00pm 7.9 N 2 6 1004.0 - 0.2 - Mostly clear 10 - - - -
31/10:30pm 8.3 NNE 8 11 1004.6 - 0.2 - Mostly clear 10 - - - -
31/10:00pm 8.4 N 9 13 1005.4 - 0.2 - Mostly clear 10 - - - -
31/09:30pm 8.2 N 8 11 1006.4 - 0.2 - Mostly clear 10 - - - -
31/09:00pm 8.3 N 9 14 1006.9 F 0.2 Fine Cloudy 40 - - - -
31/08:30pm 7.8 N 12 17 1007.5 - 0.2 - Mostly clear 10 - - - -
31/08:00pm 7.4 N 11 18 1007.7 - 0.2 - Mostly clear 10 - - - -
31/07:30pm 8.5 N 11 16 1008.2 - 0.2 - Mostly clear 10 - - - -
31/07:00pm 8.2 N 10 15 1008.5 - 0.2 - Mostly clear 10 - - - -
31/06:30pm 8.2 NNW 9 18 1009.1 - 0.2 - Mostly clear 10 - - - -
31/06:00pm 6.8 N 5 7 1009.0 F 0.2 Fine Mostly clear 40 - - - -
31/05:30pm 8.4 N 5 7 1009.0 - 0.2 - Mostly clear 10 - - - -
31/05:00pm 10.0 NNW 7 10 1008.9 - 0.2 - Mostly clear 10 - - - -
31/04:30pm 10.9 NW 9 13 1009.1 - 0.2 - Mostly clear 10 - - - -
31/04:00pm 11.4 NW 12 17 1009.5 - 0.2 - Mostly clear 10 - - - -
31/03:30pm 12.0 NW 13 17 1010.1 - 0.2 - Mostly clear 10 - - - -
31/03:00pm 11.8 NNW 14 22 1010.3 F 0.2 Fine Partly cloudy 40 - - - -
31/02:30pm 11.0 NW 11 16 1010.6 - 0.2 - Mostly clear 10 - - - -
31/02:00pm 11.3 NNW 13 18 1010.8 - 0.2 - Mostly clear 10 - - - -
31/01:30pm 11.8 NW 13 18 1011.7 - 0.2 - Partly cloudy 10 - - - -
31/01:00pm 10.3 NW 15 20 1012.0 - 0.2 - Partly cloudy 10 - - - -
31/12:30pm 10.3 NNW 13 21 1012.7 - 0.2 - Partly cloudy 10 - - - -
31/12:00pm 9.8 NNW 9 14 1013.0 S 0.2 Fine Mostly cloudy 40 - - - -
31/11:30am 9.6 NNW 11 16 1013.7 - 0.2 - Partly cloudy 10 - - - -
31/11:00am 9.0 NW 10 14 1013.8 - 0.0 - Partly cloudy 10 - - - -
31/10:30am 8.8 NW 7 11 1014.2 - 0.0 - Partly cloudy 10 - - - -
31/10:00am 8.9 NNW 11 17 1013.9 - 0.0 - Mostly clear 10 - - - -
31/09:30am 7.8 NNW 9 13 1013.7 - 0.0 - Mostly clear 10 - - - -
31/09:00am 7.3 NNW 9 13 1013.9 R 0.0 Fine Mostly clear 40 - - - -
31/08:30am 5.9 NNW 10 13 1013.6 - 0.0 - Mostly clear 10 - - - -
31/08:00am 6.2 NNW 10 13 1013.1 - 0.0 - Mostly clear 10 - - - -
31/07:30am 6.2 NNW 11 14 1012.9 - 0.0 - Mostly clear 10 - - - -
31/07:00am 6.1 NW 14 17 1012.6 - 0.0 - Mostly clear 10 - - - -
31/06:30am 5.9 NW 12 15 1012.2 - 0.0 - Mostly clear 10 - - - -
31/06:00am 6.3 NW 13 18 1011.8 R 0.0 Fine Mostly clear 40 - - - -
31/05:30am 6.3 NW 13 19 1011.6 - 0.0 - Mostly clear 10 - - - -
31/05:00am 6.7 NW 13 20 1011.2 - 0.0 - Mostly clear 10 - - - -
31/04:30am 6.1 WNW 11 16 1011.0 - 0.0 - - 10 - - - -
31/04:00am 6.4 WNW 13 17 1010.6 - 0.0 - Mostly clear 10 - - - -
31/03:30am 6.7 WNW 14 18 1010.2 - 0.0 - Partly cloudy 10 - - - -
31/03:00am 6.8 WNW 15 20 1009.9 R 0.0 Fine Partly cloudy 40 - - - -
31/02:30am 6.5 WNW 11 16 1009.7 - 0.0 - Partly cloudy 10 - - - -
31/02:00am 6.7 NW 10 13 1009.3 - 0.0 - Partly cloudy 10 - - - -
31/01:30am 6.5 NW 11 16 1009.0 - 0.0 - Partly cloudy 10 - - - -
31/01:00am 6.8 WNW 10 15 1008.3 - 0.0 - Mostly clear 10 - - - -
31/12:30am 7.5 WNW 5 10 1007.7 - 0.0 - Partly cloudy 10 - - - -
31/12:00am 7.6 WSW 11 16 1007.1 R 0.0 Fine Mostly clear 40 - - - -
 
Date/Time
EST
Temp

°C
Wind Pressure Rain
since 9am
mm
Weather Cloud Vis
km
Sea
Height
m
Swell
Dir
 
Speed
knots
Gust
knots
hPa Trend Height
m
Period
s
Dir
30/11:30pm 7.5 W 9 15 1006.9 - 0.0 - Mostly clear 10 - - - -
30/11:00pm 7.8 WSW 12 20 1006.2 - 0.0 - Mostly clear 10 - - - -
30/10:30pm 8.0 WSW 14 20 1005.6 - 0.0 - Mostly clear 10 - - - -
30/10:00pm 8.7 WSW 19 26 1004.8 - 0.0 - Mostly clear 10 - - - -
30/09:50pm 9.3 W 15 27 1004.7 - 0.0 - Partly cloudy 10 - - - -
30/09:30pm 9.2 W 16 20 1004.1 - 0.0 - Partly cloudy 10 - - - -
30/09:00pm 10.0 WNW 17 26 1003.2 R 0.0 Fine Mostly cloudy 40 - - - -
30/08:32pm 10.3 WNW 17 27 1002.2 - 0.0 - Mostly clear 10 - - - -
30/08:30pm 10.5 WNW 17 23 1002.2 - 0.0 - Mostly clear 10 - - - -
30/08:00pm 11.0 WNW 14 18 1001.3 - 0.0 - Mostly clear 10 - - - -
30/07:30pm 11.6 NW 20 32 1000.3 - 0.0 Showers Mostly clear 10 - - - -
30/07:00pm 11.8 NW 17 27 998.7 - 0.0 - Mostly clear 10 - - - -
30/06:30pm 12.0 NNW 16 27 997.8 - 0.0 - Mostly clear 10 - - - -
30/06:00pm 12.2 NNW 14 29 997.9 F 0.0 Fine Mostly cloudy 40 - - - -
30/05:30pm 12.4 NNW 15 26 998.4 - 0.0 - Mostly clear 10 - - - -
30/05:00pm 12.4 NNW 17 27 998.8 - 0.0 - Mostly clear 10 - - - -
30/04:57pm 12.5 NNW 15 27 998.9 - 0.0 - Mostly clear 10 - - - -
30/04:30pm 12.8 NNW 11 18 999.7 - 0.0 - Mostly clear 10 - - - -
30/04:00pm 13.2 NNW 16 30 1000.0 - 0.0 - Mostly clear 10 - - - -
30/03:30pm 13.6 NNW 17 33 1000.5 - 0.0 - Mostly clear 10 - - - -
30/03:14pm 14.3 NNW 13 26 1000.8 - 0.0 - Mostly clear 10 - - - -
30/03:00pm 13.9 N 9 20 1001.1 F 0.0 Distant precip. Mostly cloudy 30 - - - -
30/02:30pm 14.7 N 9 16 1001.9 - 0.0 - Mostly clear 10 - - - -
30/02:00pm 14.3 N 13 21 1002.5 - 0.0 - Mostly clear 10 - - - -
30/01:30pm 14.2 N 14 21 1003.3 - 0.0 - Mostly clear 10 - - - -
30/01:16pm 13.8 N 15 25 1003.6 - 0.0 - Mostly clear 10 - - - -
30/01:00pm 13.6 NNW 17 24 1003.9 - 0.0 - Mostly clear 10 - - - -
30/12:30pm 13.8 N 16 27 1004.6 - 0.0 - Mostly clear 10 - - - -
30/12:13pm 14.2 N 15 27 1005.6 - 0.0 - Mostly clear 10 - - - -
30/12:00pm 13.2 N 16 22 1006.4 F 0.0 Fine Mostly cloudy 40 - - - -
30/11:30am 12.8 N 13 17 1007.4 - 0.0 - Mostly clear 10 - - - -
30/11:00am 11.8 N 14 19 1008.5 - 0.0 - Mostly clear 10 - - - -
30/10:36am 11.6 NNW 15 25 1009.2 - 0.0 - Mostly clear 10 - - - -
30/10:30am 11.3 NNW 18 25 1009.1 - 0.0 - Mostly clear 10 - - - -
30/10:11am 10.7 NNW 18 28 1009.0 - 0.0 - Mostly clear 10 - - - -
30/10:00am 10.5 NNW 17 26 1009.3 - 0.0 - Mostly clear 10 - - - -
30/09:54am 10.4 NNW 16 26 1009.5 - 0.0 - Mostly clear 10 - - - -
30/09:30am 9.9 NNW 15 21 1010.2 - 0.0 - Mostly clear 10 - - - -
30/09:00am 9.5 N 15 21 1011.0 F 0.0 Fine Mostly cloudy 40 - - - -
30/08:30am 9.3 N 10 18 1011.6 - 0.0 - Mostly clear 10 - - - -

Other Formats:

Comma delimited format used in spreadsheet applications
http://www.bom.gov.au/fwo/IDT60701/IDT60701.94975.axf

JavaScript Object Notation format (JSON) in row-major order
http://www.bom.gov.au/fwo/IDT60701/IDT60701.94975.json